sensor_id;sensor_type;location;lat;lon;timestamp;P1;durP1;ratioP1;P2;durP2;ratioP2
78131;SDS011;67381;47.672;9.380;2023-08-01T00:00:42;5.30;;;2.50;;
78131;SDS011;67381;47.672;9.380;2023-08-01T00:03:09;5.60;;;2.58;;
78131;SDS011;67381;47.672;9.380;2023-08-01T00:05:36;7.43;;;2.72;;
78131;SDS011;67381;47.672;9.380;2023-08-01T00:08:05;6.07;;;2.65;;
78131;SDS011;67381;47.672;9.380;2023-08-01T00:10:33;6.10;;;3.08;;
78131;SDS011;67381;47.672;9.380;2023-08-01T00:13:00;7.53;;;2.72;;
78131;SDS011;67381;47.672;9.380;2023-08-01T00:15:27;6.25;;;2.67;;
78131;SDS011;67381;47.672;9.380;2023-08-01T00:17:55;7.28;;;3.30;;
78131;SDS011;67381;47.672;9.380;2023-08-01T00:20:22;9.45;;;2.50;;
78131;SDS011;67381;47.672;9.380;2023-08-01T00:22:50;7.35;;;2.60;;
78131;SDS011;67381;47.672;9.380;2023-08-01T00:25:17;5.97;;;2.55;;
78131;SDS011;67381;47.672;9.380;2023-08-01T00:27:45;10.90;;;2.85;;
78131;SDS011;67381;47.672;9.380;2023-08-01T00:30:12;7.88;;;3.35;;
78131;SDS011;67381;47.672;9.380;2023-08-01T00:32:41;7.45;;;3.10;;
78131;SDS011;67381;47.672;9.380;2023-08-01T00:35:09;6.63;;;2.70;;
78131;SDS011;67381;47.672;9.380;2023-08-01T00:37:37;5.47;;;2.63;;
78131;SDS011;67381;47.672;9.380;2023-08-01T00:40:04;8.18;;;2.85;;
78131;SDS011;67381;47.672;9.380;2023-08-01T00:42:35;6.75;;;3.35;;
78131;SDS011;67381;47.672;9.380;2023-08-01T00:45:03;5.75;;;2.72;;
78131;SDS011;67381;47.672;9.380;2023-08-01T00:47:31;6.75;;;2.97;;
78131;SDS011;67381;47.672;9.380;2023-08-01T00:49:59;7.25;;;2.55;;
78131;SDS011;67381;47.672;9.380;2023-08-01T00:52:26;8.95;;;3.17;;
78131;SDS011;67381;47.672;9.380;2023-08-01T00:54:54;6.63;;;2.72;;
78131;SDS011;67381;47.672;9.380;2023-08-01T00:57:23;5.82;;;2.67;;
78131;SDS011;67381;47.672;9.380;2023-08-01T00:59:50;7.35;;;2.88;;
78131;SDS011;67381;47.672;9.380;2023-08-01T01:02:18;8.25;;;2.95;;
78131;SDS011;67381;47.672;9.380;2023-08-01T01:04:45;9.88;;;2.90;;
78131;SDS011;67381;47.672;9.380;2023-08-01T01:07:12;6.18;;;2.80;;
78131;SDS011;67381;47.672;9.380;2023-08-01T01:09:41;6.05;;;2.65;;
78131;SDS011;67381;47.672;9.380;2023-08-01T01:12:08;5.53;;;2.67;;
78131;SDS011;67381;47.672;9.380;2023-08-01T01:14:35;5.43;;;2.75;;
78131;SDS011;67381;47.672;9.380;2023-08-01T01:17:03;6.97;;;2.88;;
78131;SDS011;67381;47.672;9.380;2023-08-01T01:19:30;7.18;;;2.72;;
78131;SDS011;67381;47.672;9.380;2023-08-01T01:21:58;5.88;;;2.65;;
78131;SDS011;67381;47.672;9.380;2023-08-01T01:24:25;5.80;;;2.70;;
78131;SDS011;67381;47.672;9.380;2023-08-01T01:26:54;6.10;;;2.83;;
78131;SDS011;67381;47.672;9.380;2023-08-01T01:29:22;5.10;;;2.60;;
78131;SDS011;67381;47.672;9.380;2023-08-01T01:31:50;9.43;;;2.80;;
78131;SDS011;67381;47.672;9.380;2023-08-01T01:34:18;6.78;;;2.75;;
78131;SDS011;67381;47.672;9.380;2023-08-01T01:36:45;7.03;;;2.97;;
78131;SDS011;67381;47.672;9.380;2023-08-01T01:39:13;6.65;;;2.60;;
78131;SDS011;67381;47.672;9.380;2023-08-01T01:41:40;5.28;;;2.83;;
78131;SDS011;67381;47.672;9.380;2023-08-01T01:44:07;6.00;;;3.05;;
78131;SDS011;67381;47.672;9.380;2023-08-01T01:46:35;7.97;;;3.10;;
78131;SDS011;67381;47.672;9.380;2023-08-01T01:49:02;6.00;;;2.60;;
78131;SDS011;67381;47.672;9.380;2023-08-01T01:51:30;4.70;;;2.67;;
78131;SDS011;67381;47.672;9.380;2023-08-01T01:53:58;7.40;;;2.58;;
78131;SDS011;67381;47.672;9.380;2023-08-01T01:56:25;6.97;;;2.70;;
78131;SDS011;67381;47.672;9.380;2023-08-01T01:58:53;6.93;;;2.58;;
78131;SDS011;67381;47.672;9.380;2023-08-01T02:01:20;9.68;;;2.92;;
78131;SDS011;67381;47.672;9.380;2023-08-01T02:03:48;4.40;;;2.40;;
78131;SDS011;67381;47.672;9.380;2023-08-01T02:06:16;6.88;;;3.05;;
78131;SDS011;67381;47.672;9.380;2023-08-01T02:08:43;5.95;;;2.88;;
78131;SDS011;67381;47.672;9.380;2023-08-01T02:11:11;6.68;;;2.67;;
78131;SDS011;67381;47.672;9.380;2023-08-01T02:13:38;6.00;;;2.63;;
78131;SDS011;67381;47.672;9.380;2023-08-01T02:16:06;5.78;;;2.35;;
78131;SDS011;67381;47.672;9.380;2023-08-01T02:18:33;5.97;;;2.78;;
78131;SDS011;67381;47.672;9.380;2023-08-01T02:21:01;6.88;;;2.92;;
78131;SDS011;67381;47.672;9.380;2023-08-01T02:23:28;9.60;;;2.70;;
78131;SDS011;67381;47.672;9.380;2023-08-01T02:25:56;5.85;;;2.95;;
78131;SDS011;67381;47.672;9.380;2023-08-01T02:28:23;5.60;;;2.60;;
78131;SDS011;67381;47.672;9.380;2023-08-01T02:30:50;6.93;;;3.28;;
78131;SDS011;67381;47.672;9.380;2023-08-01T02:33:18;7.35;;;2.78;;
78131;SDS011;67381;47.672;9.380;2023-08-01T02:35:46;14.18;;;3.05;;
78131;SDS011;67381;47.672;9.380;2023-08-01T02:38:14;5.55;;;3.05;;
78131;SDS011;67381;47.672;9.380;2023-08-01T02:40:41;9.10;;;2.80;;
78131;SDS011;67381;47.672;9.380;2023-08-01T02:43:08;6.38;;;3.30;;
78131;SDS011;67381;47.672;9.380;2023-08-01T02:45:36;7.78;;;3.42;;
78131;SDS011;67381;47.672;9.380;2023-08-01T02:48:03;6.13;;;2.78;;
78131;SDS011;67381;47.672;9.380;2023-08-01T02:50:30;11.65;;;3.40;;
78131;SDS011;67381;47.672;9.380;2023-08-01T02:52:58;6.07;;;3.33;;
78131;SDS011;67381;47.672;9.380;2023-08-01T02:55:25;7.07;;;3.35;;
78131;SDS011;67381;47.672;9.380;2023-08-01T02:57:52;7.72;;;3.35;;
78131;SDS011;67381;47.672;9.380;2023-08-01T03:00:20;6.38;;;2.70;;
78131;SDS011;67381;47.672;9.380;2023-08-01T03:02:47;6.43;;;2.95;;
78131;SDS011;67381;47.672;9.380;2023-08-01T03:05:15;8.82;;;3.03;;
78131;SDS011;67381;47.672;9.380;2023-08-01T03:07:42;9.52;;;2.90;;
78131;SDS011;67381;47.672;9.380;2023-08-01T03:10:09;5.72;;;2.90;;
78131;SDS011;67381;47.672;9.380;2023-08-01T03:12:38;7.75;;;3.60;;
78131;SDS011;67381;47.672;9.380;2023-08-01T03:15:05;6.35;;;3.47;;
78131;SDS011;67381;47.672;9.380;2023-08-01T03:17:35;8.73;;;3.17;;
78131;SDS011;67381;47.672;9.380;2023-08-01T03:20:03;9.80;;;3.60;;
78131;SDS011;67381;47.672;9.380;2023-08-01T03:22:30;6.60;;;3.17;;
78131;SDS011;67381;47.672;9.380;2023-08-01T03:24:58;5.18;;;3.20;;
78131;SDS011;67381;47.672;9.380;2023-08-01T03:27:25;7.40;;;2.78;;
78131;SDS011;67381;47.672;9.380;2023-08-01T03:29:53;6.13;;;3.22;;
78131;SDS011;67381;47.672;9.380;2023-08-01T03:32:20;6.10;;;2.92;;
78131;SDS011;67381;47.672;9.380;2023-08-01T03:34:47;6.53;;;2.83;;
78131;SDS011;67381;47.672;9.380;2023-08-01T03:37:15;6.10;;;2.95;;
78131;SDS011;67381;47.672;9.380;2023-08-01T03:39:43;6.72;;;3.22;;
78131;SDS011;67381;47.672;9.380;2023-08-01T03:42:11;6.05;;;3.00;;
78131;SDS011;67381;47.672;9.380;2023-08-01T03:44:38;7.82;;;2.97;;
78131;SDS011;67381;47.672;9.380;2023-08-01T03:47:06;6.65;;;2.67;;
78131;SDS011;67381;47.672;9.380;2023-08-01T03:49:33;7.57;;;3.13;;
78131;SDS011;67381;47.672;9.380;2023-08-01T03:52:01;6.95;;;3.42;;
78131;SDS011;67381;47.672;9.380;2023-08-01T03:54:28;8.05;;;2.90;;
78131;SDS011;67381;47.672;9.380;2023-08-01T03:56:55;6.50;;;3.60;;
78131;SDS011;67381;47.672;9.380;2023-08-01T03:59:23;6.60;;;2.63;;
78131;SDS011;67381;47.672;9.380;2023-08-01T04:01:51;7.05;;;3.13;;
78131;SDS011;67381;47.672;9.380;2023-08-01T04:04:18;6.47;;;3.28;;
78131;SDS011;67381;47.672;9.380;2023-08-01T04:06:47;6.90;;;3.67;;
78131;SDS011;67381;47.672;9.380;2023-08-01T04:09:14;9.75;;;3.05;;
78131;SDS011;67381;47.672;9.380;2023-08-01T04:11:42;5.30;;;2.97;;
78131;SDS011;67381;47.672;9.380;2023-08-01T04:14:09;6.68;;;2.83;;
78131;SDS011;67381;47.672;9.380;2023-08-01T04:16:36;5.00;;;2.75;;
78131;SDS011;67381;47.672;9.380;2023-08-01T04:19:04;7.80;;;3.15;;
78131;SDS011;67381;47.672;9.380;2023-08-01T04:21:31;9.88;;;2.70;;
78131;SDS011;67381;47.672;9.380;2023-08-01T04:23:58;7.45;;;3.22;;
78131;SDS011;67381;47.672;9.380;2023-08-01T04:26:26;6.32;;;2.97;;
78131;SDS011;67381;47.672;9.380;2023-08-01T04:28:53;6.10;;;2.72;;
78131;SDS011;67381;47.672;9.380;2023-08-01T04:31:21;6.30;;;2.78;;
78131;SDS011;67381;47.672;9.380;2023-08-01T04:33:48;5.95;;;2.80;;
78131;SDS011;67381;47.672;9.380;2023-08-01T04:36:16;5.50;;;2.50;;
78131;SDS011;67381;47.672;9.380;2023-08-01T04:38:43;7.05;;;3.33;;
78131;SDS011;67381;47.672;9.380;2023-08-01T04:41:10;5.32;;;2.83;;
78131;SDS011;67381;47.672;9.380;2023-08-01T04:43:38;5.68;;;2.78;;
78131;SDS011;67381;47.672;9.380;2023-08-01T04:46:05;8.10;;;2.80;;
78131;SDS011;67381;47.672;9.380;2023-08-01T04:48:32;7.35;;;2.85;;
78131;SDS011;67381;47.672;9.380;2023-08-01T04:51:00;6.15;;;3.03;;
78131;SDS011;67381;47.672;9.380;2023-08-01T04:53:27;6.97;;;2.60;;
78131;SDS011;67381;47.672;9.380;2023-08-01T04:55:54;5.35;;;2.70;;
78131;SDS011;67381;47.672;9.380;2023-08-01T04:58:22;5.95;;;2.58;;
78131;SDS011;67381;47.672;9.380;2023-08-01T05:00:49;4.55;;;2.40;;
78131;SDS011;67381;47.672;9.380;2023-08-01T05:03:17;4.95;;;2.70;;
78131;SDS011;67381;47.672;9.380;2023-08-01T05:05:45;7.45;;;2.78;;
78131;SDS011;67381;47.672;9.380;2023-08-01T05:08:12;8.88;;;2.95;;
78131;SDS011;67381;47.672;9.380;2023-08-01T05:10:39;8.55;;;2.85;;
78131;SDS011;67381;47.672;9.380;2023-08-01T05:13:07;5.32;;;2.50;;
78131;SDS011;67381;47.672;9.380;2023-08-01T05:15:34;6.20;;;2.58;;
78131;SDS011;67381;47.672;9.380;2023-08-01T05:18:01;6.13;;;2.40;;
78131;SDS011;67381;47.672;9.380;2023-08-01T05:20:29;5.28;;;2.30;;
78131;SDS011;67381;47.672;9.380;2023-08-01T05:22:57;4.95;;;2.50;;
78131;SDS011;67381;47.672;9.380;2023-08-01T05:25:26;5.07;;;2.30;;
78131;SDS011;67381;47.672;9.380;2023-08-01T05:27:53;5.20;;;2.50;;
78131;SDS011;67381;47.672;9.380;2023-08-01T05:30:20;6.35;;;2.17;;
78131;SDS011;67381;47.672;9.380;2023-08-01T05:32:48;4.97;;;2.38;;
78131;SDS011;67381;47.672;9.380;2023-08-01T05:35:15;6.82;;;2.55;;
78131;SDS011;67381;47.672;9.380;2023-08-01T05:37:43;3.72;;;1.95;;
78131;SDS011;67381;47.672;9.380;2023-08-01T05:40:11;5.57;;;2.30;;
78131;SDS011;67381;47.672;9.380;2023-08-01T05:42:38;6.60;;;2.30;;
78131;SDS011;67381;47.672;9.380;2023-08-01T05:45:06;5.20;;;2.67;;
78131;SDS011;67381;47.672;9.380;2023-08-01T05:47:34;6.47;;;2.90;;
78131;SDS011;67381;47.672;9.380;2023-08-01T05:50:03;5.93;;;2.30;;
78131;SDS011;67381;47.672;9.380;2023-08-01T05:52:31;6.68;;;2.83;;
78131;SDS011;67381;47.672;9.380;2023-08-01T05:54:58;6.13;;;2.17;;
78131;SDS011;67381;47.672;9.380;2023-08-01T05:57:26;5.07;;;1.98;;
78131;SDS011;67381;47.672;9.380;2023-08-01T05:59:53;5.82;;;2.17;;
78131;SDS011;67381;47.672;9.380;2023-08-01T06:02:20;5.70;;;2.53;;
78131;SDS011;67381;47.672;9.380;2023-08-01T06:04:48;8.65;;;2.50;;
78131;SDS011;67381;47.672;9.380;2023-08-01T06:07:15;5.40;;;2.60;;
78131;SDS011;67381;47.672;9.380;2023-08-01T06:09:43;4.70;;;2.05;;
78131;SDS011;67381;47.672;9.380;2023-08-01T06:12:10;4.90;;;2.45;;
78131;SDS011;67381;47.672;9.380;2023-08-01T06:14:37;4.80;;;2.45;;
78131;SDS011;67381;47.672;9.380;2023-08-01T06:17:05;6.75;;;2.67;;
78131;SDS011;67381;47.672;9.380;2023-08-01T06:19:32;6.43;;;2.85;;
78131;SDS011;67381;47.672;9.380;2023-08-01T06:22:00;7.32;;;2.22;;
78131;SDS011;67381;47.672;9.380;2023-08-01T06:24:27;5.43;;;2.22;;
78131;SDS011;67381;47.672;9.380;2023-08-01T06:26:54;4.75;;;2.08;;
78131;SDS011;67381;47.672;9.380;2023-08-01T06:29:22;5.22;;;2.40;;
78131;SDS011;67381;47.672;9.380;2023-08-01T06:31:51;8.27;;;2.80;;
78131;SDS011;67381;47.672;9.380;2023-08-01T06:34:19;6.40;;;2.92;;
78131;SDS011;67381;47.672;9.380;2023-08-01T06:36:46;5.10;;;2.25;;
78131;SDS011;67381;47.672;9.380;2023-08-01T06:39:13;7.53;;;2.97;;
78131;SDS011;67381;47.672;9.380;2023-08-01T06:41:41;11.25;;;2.53;;
78131;SDS011;67381;47.672;9.380;2023-08-01T06:44:08;6.68;;;2.70;;
78131;SDS011;67381;47.672;9.380;2023-08-01T06:46:36;5.15;;;2.40;;
78131;SDS011;67381;47.672;9.380;2023-08-01T06:49:03;10.25;;;2.90;;
78131;SDS011;67381;47.672;9.380;2023-08-01T06:51:30;6.95;;;2.60;;
78131;SDS011;67381;47.672;9.380;2023-08-01T06:53:58;4.50;;;2.40;;
78131;SDS011;67381;47.672;9.380;2023-08-01T06:56:25;5.85;;;2.30;;
78131;SDS011;67381;47.672;9.380;2023-08-01T06:58:52;4.53;;;2.40;;
78131;SDS011;67381;47.672;9.380;2023-08-01T07:01:20;5.60;;;2.50;;
78131;SDS011;67381;47.672;9.380;2023-08-01T07:03:47;6.20;;;2.80;;
78131;SDS011;67381;47.672;9.380;2023-08-01T07:06:15;5.85;;;2.28;;
78131;SDS011;67381;47.672;9.380;2023-08-01T07:08:42;8.95;;;2.88;;
78131;SDS011;67381;47.672;9.380;2023-08-01T07:11:09;7.75;;;3.20;;
78131;SDS011;67381;47.672;9.380;2023-08-01T07:13:37;6.75;;;2.75;;
78131;SDS011;67381;47.672;9.380;2023-08-01T07:16:04;4.85;;;2.45;;
78131;SDS011;67381;47.672;9.380;2023-08-01T07:18:32;9.77;;;3.05;;
78131;SDS011;67381;47.672;9.380;2023-08-01T07:21:03;4.53;;;2.20;;
78131;SDS011;67381;47.672;9.380;2023-08-01T07:23:33;7.43;;;2.42;;
78131;SDS011;67381;47.672;9.380;2023-08-01T07:26:01;6.88;;;2.38;;
78131;SDS011;67381;47.672;9.380;2023-08-01T07:28:28;7.90;;;2.88;;
78131;SDS011;67381;47.672;9.380;2023-08-01T07:31:03;8.20;;;2.53;;
78131;SDS011;67381;47.672;9.380;2023-08-01T07:33:32;5.43;;;2.90;;
78131;SDS011;67381;47.672;9.380;2023-08-01T07:36:00;9.00;;;3.13;;
78131;SDS011;67381;47.672;9.380;2023-08-01T07:38:27;9.70;;;3.08;;
78131;SDS011;67381;47.672;9.380;2023-08-01T07:40:55;8.60;;;3.22;;
78131;SDS011;67381;47.672;9.380;2023-08-01T07:43:22;4.80;;;2.30;;
78131;SDS011;67381;47.672;9.380;2023-08-01T07:45:54;12.07;;;3.42;;
78131;SDS011;67381;47.672;9.380;2023-08-01T07:48:25;5.70;;;2.78;;
78131;SDS011;67381;47.672;9.380;2023-08-01T07:50:53;6.97;;;2.90;;
78131;SDS011;67381;47.672;9.380;2023-08-01T07:53:20;5.20;;;2.65;;
78131;SDS011;67381;47.672;9.380;2023-08-01T07:55:48;7.28;;;2.70;;
78131;SDS011;67381;47.672;9.380;2023-08-01T07:58:16;7.30;;;2.88;;
78131;SDS011;67381;47.672;9.380;2023-08-01T08:00:43;7.57;;;2.78;;
78131;SDS011;67381;47.672;9.380;2023-08-01T08:03:11;5.57;;;2.33;;
78131;SDS011;67381;47.672;9.380;2023-08-01T08:05:38;8.73;;;2.90;;
78131;SDS011;67381;47.672;9.380;2023-08-01T08:08:07;6.70;;;3.30;;
78131;SDS011;67381;47.672;9.380;2023-08-01T08:10:34;8.98;;;3.42;;
78131;SDS011;67381;47.672;9.380;2023-08-01T08:13:02;7.80;;;2.70;;
78131;SDS011;67381;47.672;9.380;2023-08-01T08:15:29;7.95;;;4.40;;
78131;SDS011;67381;47.672;9.380;2023-08-01T08:18:00;7.55;;;4.47;;
78131;SDS011;67381;47.672;9.380;2023-08-01T08:20:31;8.93;;;3.40;;
78131;SDS011;67381;47.672;9.380;2023-08-01T08:23:00;8.07;;;4.30;;
78131;SDS011;67381;47.672;9.380;2023-08-01T08:25:28;10.40;;;4.03;;
78131;SDS011;67381;47.672;9.380;2023-08-01T08:27:55;7.75;;;3.42;;
78131;SDS011;67381;47.672;9.380;2023-08-01T08:30:22;10.75;;;4.07;;
78131;SDS011;67381;47.672;9.380;2023-08-01T08:32:50;9.45;;;3.30;;
78131;SDS011;67381;47.672;9.380;2023-08-01T08:35:17;7.03;;;3.00;;
78131;SDS011;67381;47.672;9.380;2023-08-01T08:37:45;7.55;;;3.90;;
78131;SDS011;67381;47.672;9.380;2023-08-01T08:40:12;5.55;;;2.50;;
78131;SDS011;67381;47.672;9.380;2023-08-01T08:42:41;8.20;;;2.90;;
78131;SDS011;67381;47.672;9.380;2023-08-01T08:45:08;5.95;;;3.03;;
78131;SDS011;67381;47.672;9.380;2023-08-01T08:47:36;6.78;;;2.75;;
78131;SDS011;67381;47.672;9.380;2023-08-01T08:50:05;5.68;;;3.38;;
78131;SDS011;67381;47.672;9.380;2023-08-01T08:52:33;9.27;;;3.97;;
78131;SDS011;67381;47.672;9.380;2023-08-01T08:55:01;7.97;;;4.65;;
78131;SDS011;67381;47.672;9.380;2023-08-01T08:57:29;9.48;;;3.88;;
78131;SDS011;67381;47.672;9.380;2023-08-01T08:59:57;7.68;;;3.60;;
78131;SDS011;67381;47.672;9.380;2023-08-01T09:02:25;7.32;;;3.65;;
78131;SDS011;67381;47.672;9.380;2023-08-01T09:04:53;6.55;;;2.83;;
78131;SDS011;67381;47.672;9.380;2023-08-01T09:07:21;7.60;;;3.10;;
78131;SDS011;67381;47.672;9.380;2023-08-01T09:09:50;6.38;;;3.10;;
78131;SDS011;67381;47.672;9.380;2023-08-01T09:12:18;7.57;;;3.10;;
78131;SDS011;67381;47.672;9.380;2023-08-01T09:14:45;8.93;;;3.60;;
78131;SDS011;67381;47.672;9.380;2023-08-01T09:17:14;6.10;;;3.45;;
78131;SDS011;67381;47.672;9.380;2023-08-01T09:19:43;5.80;;;3.45;;
78131;SDS011;67381;47.672;9.380;2023-08-01T09:22:11;5.60;;;2.80;;
78131;SDS011;67381;47.672;9.380;2023-08-01T09:24:50;6.75;;;3.05;;
78131;SDS011;67381;47.672;9.380;2023-08-01T09:27:20;6.63;;;2.85;;
78131;SDS011;67381;47.672;9.380;2023-08-01T09:29:48;8.65;;;3.55;;
78131;SDS011;67381;47.672;9.380;2023-08-01T09:32:15;6.68;;;3.13;;
78131;SDS011;67381;47.672;9.380;2023-08-01T09:34:43;13.73;;;3.78;;
78131;SDS011;67381;47.672;9.380;2023-08-01T09:37:10;7.22;;;3.65;;
78131;SDS011;67381;47.672;9.380;2023-08-01T09:39:38;7.40;;;3.47;;
78131;SDS011;67381;47.672;9.380;2023-08-01T09:42:08;9.77;;;3.40;;
78131;SDS011;67381;47.672;9.380;2023-08-01T09:44:36;6.05;;;3.28;;
78131;SDS011;67381;47.672;9.380;2023-08-01T09:47:04;6.22;;;3.33;;
78131;SDS011;67381;47.672;9.380;2023-08-01T09:49:35;7.60;;;4.07;;
78131;SDS011;67381;47.672;9.380;2023-08-01T09:52:04;8.32;;;3.08;;
78131;SDS011;67381;47.672;9.380;2023-08-01T09:54:31;9.55;;;3.47;;
78131;SDS011;67381;47.672;9.380;2023-08-01T09:56:59;8.52;;;3.45;;
78131;SDS011;67381;47.672;9.380;2023-08-01T09:59:27;8.23;;;3.70;;
78131;SDS011;67381;47.672;9.380;2023-08-01T10:01:55;10.07;;;3.42;;
78131;SDS011;67381;47.672;9.380;2023-08-01T10:04:29;6.82;;;3.42;;
78131;SDS011;67381;47.672;9.380;2023-08-01T10:06:57;4.97;;;2.80;;
78131;SDS011;67381;47.672;9.380;2023-08-01T10:09:26;7.03;;;3.42;;
78131;SDS011;67381;47.672;9.380;2023-08-01T10:11:56;5.97;;;2.80;;
78131;SDS011;67381;47.672;9.380;2023-08-01T10:14:25;8.63;;;3.50;;
78131;SDS011;67381;47.672;9.380;2023-08-01T10:16:52;7.50;;;3.60;;
78131;SDS011;67381;47.672;9.380;2023-08-01T10:19:20;5.22;;;2.53;;
78131;SDS011;67381;47.672;9.380;2023-08-01T10:21:48;5.78;;;3.08;;
78131;SDS011;67381;47.672;9.380;2023-08-01T10:24:16;6.13;;;2.92;;
78131;SDS011;67381;47.672;9.380;2023-08-01T10:26:45;5.13;;;2.70;;
78131;SDS011;67381;47.672;9.380;2023-08-01T10:29:15;7.40;;;3.50;;
78131;SDS011;67381;47.672;9.380;2023-08-01T10:31:52;6.85;;;3.10;;
78131;SDS011;67381;47.672;9.380;2023-08-01T10:34:20;6.43;;;3.25;;
78131;SDS011;67381;47.672;9.380;2023-08-01T10:36:56;5.22;;;2.72;;
78131;SDS011;67381;47.672;9.380;2023-08-01T10:39:25;6.78;;;2.80;;
78131;SDS011;67381;47.672;9.380;2023-08-01T10:42:00;6.05;;;2.92;;
78131;SDS011;67381;47.672;9.380;2023-08-01T10:44:29;5.35;;;2.63;;
78131;SDS011;67381;47.672;9.380;2023-08-01T10:46:59;7.20;;;2.85;;
78131;SDS011;67381;47.672;9.380;2023-08-01T10:54:57;6.05;;;2.78;;
78131;SDS011;67381;47.672;9.380;2023-08-01T10:57:26;6.80;;;2.80;;
78131;SDS011;67381;47.672;9.380;2023-08-01T10:59:56;7.78;;;2.70;;
78131;SDS011;67381;47.672;9.380;2023-08-01T11:02:27;8.15;;;2.50;;
78131;SDS011;67381;47.672;9.380;2023-08-01T11:04:59;6.97;;;3.28;;
78131;SDS011;67381;47.672;9.380;2023-08-01T11:07:31;7.45;;;2.58;;
78131;SDS011;67381;47.672;9.380;2023-08-01T11:10:05;7.15;;;2.63;;
78131;SDS011;67381;47.672;9.380;2023-08-01T11:12:40;5.90;;;2.95;;
78131;SDS011;67381;47.672;9.380;2023-08-01T11:15:10;5.38;;;2.65;;
78131;SDS011;67381;47.672;9.380;2023-08-01T11:17:39;6.05;;;2.45;;
78131;SDS011;67381;47.672;9.380;2023-08-01T11:20:08;4.80;;;2.70;;
78131;SDS011;67381;47.672;9.380;2023-08-01T11:22:37;6.20;;;2.95;;
78131;SDS011;67381;47.672;9.380;2023-08-01T11:25:15;5.95;;;2.53;;
78131;SDS011;67381;47.672;9.380;2023-08-01T11:27:43;6.75;;;2.33;;
78131;SDS011;67381;47.672;9.380;2023-08-01T11:30:10;5.65;;;2.60;;
78131;SDS011;67381;47.672;9.380;2023-08-01T11:32:38;9.57;;;2.72;;
78131;SDS011;67381;47.672;9.380;2023-08-01T11:35:05;6.15;;;2.40;;
78131;SDS011;67381;47.672;9.380;2023-08-01T11:37:33;4.13;;;2.20;;
78131;SDS011;67381;47.672;9.380;2023-08-01T11:40:00;6.93;;;2.20;;
78131;SDS011;67381;47.672;9.380;2023-08-01T11:42:31;4.72;;;2.33;;
78131;SDS011;67381;47.672;9.380;2023-08-01T11:45:10;5.45;;;2.38;;
78131;SDS011;67381;47.672;9.380;2023-08-01T11:47:44;5.43;;;2.10;;
78131;SDS011;67381;47.672;9.380;2023-08-01T11:50:12;4.15;;;2.20;;
78131;SDS011;67381;47.672;9.380;2023-08-01T11:52:40;5.25;;;2.33;;
78131;SDS011;67381;47.672;9.380;2023-08-01T11:55:08;5.38;;;1.95;;
78131;SDS011;67381;47.672;9.380;2023-08-01T11:57:54;3.85;;;1.90;;
78131;SDS011;67381;47.672;9.380;2023-08-01T12:00:26;4.25;;;1.65;;
78131;SDS011;67381;47.672;9.380;2023-08-01T12:03:07;5.60;;;1.92;;
78131;SDS011;67381;47.672;9.380;2023-08-01T12:05:40;3.15;;;1.52;;
78131;SDS011;67381;47.672;9.380;2023-08-01T12:08:14;3.20;;;1.48;;
78131;SDS011;67381;47.672;9.380;2023-08-01T12:10:42;3.65;;;1.73;;
78131;SDS011;67381;47.672;9.380;2023-08-01T12:13:20;5.70;;;1.50;;
78131;SDS011;67381;47.672;9.380;2023-08-01T12:15:49;3.63;;;1.55;;
78131;SDS011;67381;47.672;9.380;2023-08-01T12:18:23;3.42;;;1.33;;
78131;SDS011;67381;47.672;9.380;2023-08-01T12:20:54;2.50;;;1.30;;
78131;SDS011;67381;47.672;9.380;2023-08-01T12:23:22;3.53;;;1.35;;
78131;SDS011;67381;47.672;9.380;2023-08-01T12:25:50;2.78;;;1.27;;
78131;SDS011;67381;47.672;9.380;2023-08-01T12:28:17;3.85;;;1.30;;
78131;SDS011;67381;47.672;9.380;2023-08-01T12:30:44;3.90;;;1.30;;
78131;SDS011;67381;47.672;9.380;2023-08-01T12:33:12;3.28;;;1.30;;
78131;SDS011;67381;47.672;9.380;2023-08-01T12:35:41;2.90;;;1.10;;
78131;SDS011;67381;47.672;9.380;2023-08-01T12:38:08;3.78;;;1.05;;
78131;SDS011;67381;47.672;9.380;2023-08-01T12:40:36;4.45;;;1.70;;
78131;SDS011;67381;47.672;9.380;2023-08-01T12:43:03;3.00;;;1.13;;
78131;SDS011;67381;47.672;9.380;2023-08-01T12:45:32;3.45;;;1.60;;
78131;SDS011;67381;47.672;9.380;2023-08-01T12:48:00;3.13;;;1.33;;
78131;SDS011;67381;47.672;9.380;2023-08-01T12:50:27;3.03;;;1.10;;
78131;SDS011;67381;47.672;9.380;2023-08-01T12:52:55;4.50;;;1.17;;
78131;SDS011;67381;47.672;9.380;2023-08-01T12:55:22;3.90;;;1.20;;
78131;SDS011;67381;47.672;9.380;2023-08-01T12:57:50;3.67;;;1.30;;
78131;SDS011;67381;47.672;9.380;2023-08-01T13:00:17;2.97;;;1.15;;
78131;SDS011;67381;47.672;9.380;2023-08-01T13:02:45;2.67;;;1.10;;
78131;SDS011;67381;47.672;9.380;2023-08-01T13:05:14;2.33;;;1.02;;
78131;SDS011;67381;47.672;9.380;2023-08-01T13:07:41;3.10;;;0.93;;
78131;SDS011;67381;47.672;9.380;2023-08-01T13:10:09;2.20;;;1.00;;
78131;SDS011;67381;47.672;9.380;2023-08-01T13:12:36;4.15;;;1.10;;
78131;SDS011;67381;47.672;9.380;2023-08-01T13:15:04;2.72;;;0.95;;
78131;SDS011;67381;47.672;9.380;2023-08-01T13:17:38;2.63;;;0.82;;
78131;SDS011;67381;47.672;9.380;2023-08-01T13:20:05;2.72;;;0.98;;
78131;SDS011;67381;47.672;9.380;2023-08-01T13:22:33;2.13;;;0.90;;
78131;SDS011;67381;47.672;9.380;2023-08-01T13:25:00;2.42;;;1.15;;
78131;SDS011;67381;47.672;9.380;2023-08-01T13:27:30;4.30;;;1.17;;
78131;SDS011;67381;47.672;9.380;2023-08-01T13:29:58;2.60;;;1.10;;
78131;SDS011;67381;47.672;9.380;2023-08-01T13:32:26;2.58;;;0.98;;
78131;SDS011;67381;47.672;9.380;2023-08-01T13:34:53;2.58;;;1.25;;
78131;SDS011;67381;47.672;9.380;2023-08-01T13:37:20;2.00;;;0.93;;
78131;SDS011;67381;47.672;9.380;2023-08-01T13:39:48;3.55;;;1.13;;
78131;SDS011;67381;47.672;9.380;2023-08-01T13:42:15;3.75;;;1.08;;
78131;SDS011;67381;47.672;9.380;2023-08-01T13:44:43;4.15;;;0.88;;
78131;SDS011;67381;47.672;9.380;2023-08-01T13:47:10;2.78;;;1.15;;
78131;SDS011;67381;47.672;9.380;2023-08-01T13:49:37;2.28;;;0.95;;
78131;SDS011;67381;47.672;9.380;2023-08-01T13:52:05;3.58;;;0.98;;
78131;SDS011;67381;47.672;9.380;2023-08-01T13:54:33;2.45;;;0.90;;
78131;SDS011;67381;47.672;9.380;2023-08-01T13:57:00;2.58;;;0.82;;
78131;SDS011;67381;47.672;9.380;2023-08-01T13:59:28;1.85;;;0.80;;
78131;SDS011;67381;47.672;9.380;2023-08-01T14:01:56;2.45;;;0.88;;
78131;SDS011;67381;47.672;9.380;2023-08-01T14:04:23;4.35;;;0.70;;
78131;SDS011;67381;47.672;9.380;2023-08-01T14:06:51;1.90;;;0.70;;
78131;SDS011;67381;47.672;9.380;2023-08-01T14:09:18;2.55;;;0.93;;
78131;SDS011;67381;47.672;9.380;2023-08-01T14:11:45;2.65;;;1.00;;
78131;SDS011;67381;47.672;9.380;2023-08-01T14:14:13;2.45;;;0.95;;
78131;SDS011;67381;47.672;9.380;2023-08-01T14:16:41;2.40;;;0.93;;
78131;SDS011;67381;47.672;9.380;2023-08-01T14:19:08;3.47;;;1.10;;
78131;SDS011;67381;47.672;9.380;2023-08-01T14:21:36;3.13;;;1.23;;
78131;SDS011;67381;47.672;9.380;2023-08-01T14:24:03;3.13;;;1.35;;
78131;SDS011;67381;47.672;9.380;2023-08-01T14:26:31;2.83;;;1.20;;
78131;SDS011;67381;47.672;9.380;2023-08-01T14:28:58;2.72;;;1.00;;
78131;SDS011;67381;47.672;9.380;2023-08-01T14:31:26;3.25;;;0.90;;
78131;SDS011;67381;47.672;9.380;2023-08-01T14:33:53;2.83;;;1.42;;
78131;SDS011;67381;47.672;9.380;2023-08-01T14:36:20;2.50;;;1.00;;
78131;SDS011;67381;47.672;9.380;2023-08-01T14:38:48;5.35;;;1.20;;
78131;SDS011;67381;47.672;9.380;2023-08-01T14:41:22;4.35;;;1.40;;
78131;SDS011;67381;47.672;9.380;2023-08-01T14:43:56;3.17;;;1.20;;
78131;SDS011;67381;47.672;9.380;2023-08-01T14:46:23;3.53;;;1.20;;
78131;SDS011;67381;47.672;9.380;2023-08-01T14:48:51;2.45;;;1.15;;
78131;SDS011;67381;47.672;9.380;2023-08-01T14:51:18;4.45;;;1.88;;
78131;SDS011;67381;47.672;9.380;2023-08-01T14:53:45;3.28;;;1.50;;
78131;SDS011;67381;47.672;9.380;2023-08-01T14:56:13;3.28;;;1.70;;
78131;SDS011;67381;47.672;9.380;2023-08-01T14:58:40;4.97;;;1.25;;